sensor_id;sensor_type;location;lat;lon;timestamp;P1;durP1;ratioP1;P2;durP2;ratioP2
69280;SDS011;56392;51.082;17.080;2023-09-12T00:01:56;14.30;;;9.00;;
69280;SDS011;56392;51.082;17.080;2023-09-12T00:07:20;15.73;;;9.55;;
69280;SDS011;56392;51.082;17.080;2023-09-12T00:12:44;17.87;;;10.40;;
69280;SDS011;56392;51.082;17.080;2023-09-12T00:18:07;15.70;;;8.73;;
69280;SDS011;56392;51.082;17.080;2023-09-12T00:23:30;16.83;;;10.38;;
69280;SDS011;56392;51.082;17.080;2023-09-12T00:28:56;19.60;;;10.30;;
69280;SDS011;56392;51.082;17.080;2023-09-12T00:34:19;17.73;;;10.20;;
69280;SDS011;56392;51.082;17.080;2023-09-12T00:39:42;18.88;;;11.00;;
69280;SDS011;56392;51.082;17.080;2023-09-12T00:45:07;16.23;;;10.52;;
69280;SDS011;56392;51.082;17.080;2023-09-12T00:50:31;16.73;;;10.47;;
69280;SDS011;56392;51.082;17.080;2023-09-12T00:55:56;20.70;;;11.10;;
69280;SDS011;56392;51.082;17.080;2023-09-12T01:01:23;16.70;;;11.30;;
69280;SDS011;56392;51.082;17.080;2023-09-12T01:06:49;24.37;;;10.97;;
69280;SDS011;56392;51.082;17.080;2023-09-12T01:12:12;17.80;;;11.20;;
69280;SDS011;56392;51.082;17.080;2023-09-12T01:17:37;22.13;;;12.30;;
69280;SDS011;56392;51.082;17.080;2023-09-12T01:23:07;18.63;;;11.18;;
69280;SDS011;56392;51.082;17.080;2023-09-12T01:28:41;18.77;;;11.43;;
69280;SDS011;56392;51.082;17.080;2023-09-12T01:34:10;17.90;;;11.18;;
69280;SDS011;56392;51.082;17.080;2023-09-12T01:39:37;19.85;;;11.95;;
69280;SDS011;56392;51.082;17.080;2023-09-12T01:45:01;19.30;;;11.80;;
69280;SDS011;56392;51.082;17.080;2023-09-12T01:50:26;18.70;;;11.10;;
69280;SDS011;56392;51.082;17.080;2023-09-12T01:55:50;20.60;;;11.35;;
69280;SDS011;56392;51.082;17.080;2023-09-12T02:01:15;17.93;;;11.77;;
69280;SDS011;56392;51.082;17.080;2023-09-12T02:06:39;21.77;;;13.07;;
69280;SDS011;56392;51.082;17.080;2023-09-12T02:12:05;19.30;;;12.18;;
69280;SDS011;56392;51.082;17.080;2023-09-12T02:17:30;20.25;;;12.23;;
69280;SDS011;56392;51.082;17.080;2023-09-12T02:22:53;20.47;;;11.70;;
69280;SDS011;56392;51.082;17.080;2023-09-12T02:28:16;23.85;;;13.43;;
69280;SDS011;56392;51.082;17.080;2023-09-12T02:33:41;19.33;;;11.80;;
69280;SDS011;56392;51.082;17.080;2023-09-12T02:39:06;20.23;;;11.37;;
69280;SDS011;56392;51.082;17.080;2023-09-12T02:44:29;18.10;;;11.68;;
69280;SDS011;56392;51.082;17.080;2023-09-12T02:49:55;17.55;;;11.38;;
69280;SDS011;56392;51.082;17.080;2023-09-12T02:55:18;19.00;;;11.33;;
69280;SDS011;56392;51.082;17.080;2023-09-12T03:00:41;20.80;;;11.90;;
69280;SDS011;56392;51.082;17.080;2023-09-12T03:06:06;17.05;;;10.90;;
69280;SDS011;56392;51.082;17.080;2023-09-12T03:11:29;16.13;;;9.73;;
69280;SDS011;56392;51.082;17.080;2023-09-12T03:16:53;17.40;;;9.73;;
69280;SDS011;56392;51.082;17.080;2023-09-12T03:22:18;15.85;;;10.20;;
69280;SDS011;56392;51.082;17.080;2023-09-12T03:27:41;16.52;;;9.75;;
69280;SDS011;56392;51.082;17.080;2023-09-12T03:33:05;17.03;;;10.33;;
69280;SDS011;56392;51.082;17.080;2023-09-12T03:38:30;15.27;;;10.55;;
69280;SDS011;56392;51.082;17.080;2023-09-12T03:43:53;16.80;;;9.98;;
69280;SDS011;56392;51.082;17.080;2023-09-12T03:49:17;16.57;;;10.47;;
69280;SDS011;56392;51.082;17.080;2023-09-12T03:54:42;15.50;;;10.50;;
69280;SDS011;56392;51.082;17.080;2023-09-12T04:00:05;17.38;;;10.90;;
69280;SDS011;56392;51.082;17.080;2023-09-12T04:05:30;18.65;;;10.63;;
69280;SDS011;56392;51.082;17.080;2023-09-12T04:10:55;18.33;;;10.47;;
69280;SDS011;56392;51.082;17.080;2023-09-12T04:16:18;17.02;;;10.77;;
69280;SDS011;56392;51.082;17.080;2023-09-12T04:21:41;19.50;;;10.70;;
69280;SDS011;56392;51.082;17.080;2023-09-12T04:27:05;16.43;;;9.80;;
69280;SDS011;56392;51.082;17.080;2023-09-12T04:32:29;15.18;;;9.98;;
69280;SDS011;56392;51.082;17.080;2023-09-12T04:37:52;17.17;;;10.13;;
69280;SDS011;56392;51.082;17.080;2023-09-12T04:43:17;19.37;;;11.17;;
69280;SDS011;56392;51.082;17.080;2023-09-12T04:48:40;22.20;;;10.93;;
69280;SDS011;56392;51.082;17.080;2023-09-12T04:54:03;18.58;;;11.20;;
69280;SDS011;56392;51.082;17.080;2023-09-12T04:59:28;17.27;;;10.48;;
69280;SDS011;56392;51.082;17.080;2023-09-12T05:04:51;17.30;;;10.07;;
69280;SDS011;56392;51.082;17.080;2023-09-12T05:10:20;17.98;;;10.88;;
69280;SDS011;56392;51.082;17.080;2023-09-12T05:15:46;18.25;;;10.35;;
69280;SDS011;56392;51.082;17.080;2023-09-12T05:21:11;16.33;;;10.40;;
69280;SDS011;56392;51.082;17.080;2023-09-12T05:26:34;19.58;;;11.13;;
69280;SDS011;56392;51.082;17.080;2023-09-12T05:31:58;23.50;;;12.25;;
69280;SDS011;56392;51.082;17.080;2023-09-12T05:37:21;20.63;;;11.17;;
69280;SDS011;56392;51.082;17.080;2023-09-12T05:42:45;27.93;;;14.10;;
69280;SDS011;56392;51.082;17.080;2023-09-12T05:48:09;27.85;;;13.68;;
69280;SDS011;56392;51.082;17.080;2023-09-12T05:53:32;24.15;;;13.57;;
69280;SDS011;56392;51.082;17.080;2023-09-12T05:58:56;26.10;;;13.93;;
69280;SDS011;56392;51.082;17.080;2023-09-12T06:04:21;24.58;;;13.68;;
69280;SDS011;56392;51.082;17.080;2023-09-12T06:09:45;23.75;;;13.38;;
69280;SDS011;56392;51.082;17.080;2023-09-12T06:15:08;22.33;;;13.43;;
69280;SDS011;56392;51.082;17.080;2023-09-12T06:20:33;22.80;;;12.43;;
69280;SDS011;56392;51.082;17.080;2023-09-12T06:25:56;21.00;;;12.82;;
69280;SDS011;56392;51.082;17.080;2023-09-12T06:31:20;19.90;;;12.10;;
69280;SDS011;56392;51.082;17.080;2023-09-12T06:36:45;22.40;;;11.60;;
69280;SDS011;56392;51.082;17.080;2023-09-12T06:42:08;20.83;;;10.65;;
69280;SDS011;56392;51.082;17.080;2023-09-12T06:47:31;22.17;;;10.95;;
69280;SDS011;56392;51.082;17.080;2023-09-12T06:52:56;20.63;;;10.83;;
69280;SDS011;56392;51.082;17.080;2023-09-12T06:58:19;20.10;;;11.10;;
69280;SDS011;56392;51.082;17.080;2023-09-12T07:03:45;16.98;;;10.85;;
69280;SDS011;56392;51.082;17.080;2023-09-12T07:09:09;19.67;;;10.97;;
69280;SDS011;56392;51.082;17.080;2023-09-12T07:14:36;21.00;;;11.45;;
69280;SDS011;56392;51.082;17.080;2023-09-12T07:20:00;26.35;;;10.80;;
69280;SDS011;56392;51.082;17.080;2023-09-12T07:25:24;18.43;;;10.27;;
69280;SDS011;56392;51.082;17.080;2023-09-12T07:30:48;21.93;;;11.43;;
69280;SDS011;56392;51.082;17.080;2023-09-12T07:36:11;21.63;;;11.52;;
69280;SDS011;56392;51.082;17.080;2023-09-12T07:41:36;27.80;;;11.15;;
69280;SDS011;56392;51.082;17.080;2023-09-12T07:47:00;23.10;;;11.80;;
69280;SDS011;56392;51.082;17.080;2023-09-12T07:52:24;21.08;;;11.05;;
69280;SDS011;56392;51.082;17.080;2023-09-12T07:57:49;21.50;;;10.98;;
69280;SDS011;56392;51.082;17.080;2023-09-12T08:03:12;20.73;;;11.80;;
69280;SDS011;56392;51.082;17.080;2023-09-12T08:08:36;23.83;;;10.48;;
69280;SDS011;56392;51.082;17.080;2023-09-12T08:14:01;16.85;;;10.18;;
69280;SDS011;56392;51.082;17.080;2023-09-12T08:19:24;20.67;;;10.18;;
69280;SDS011;56392;51.082;17.080;2023-09-12T08:24:47;16.03;;;9.40;;
69280;SDS011;56392;51.082;17.080;2023-09-12T08:30:21;17.85;;;9.20;;
69280;SDS011;56392;51.082;17.080;2023-09-12T08:35:47;15.88;;;9.43;;
69280;SDS011;56392;51.082;17.080;2023-09-12T08:41:12;17.50;;;9.70;;
69280;SDS011;56392;51.082;17.080;2023-09-12T08:46:37;21.27;;;10.13;;
69280;SDS011;56392;51.082;17.080;2023-09-12T08:52:01;17.85;;;10.20;;
69280;SDS011;56392;51.082;17.080;2023-09-12T08:57:25;18.47;;;9.80;;
69280;SDS011;56392;51.082;17.080;2023-09-12T09:02:54;17.00;;;9.35;;
69280;SDS011;56392;51.082;17.080;2023-09-12T09:08:18;16.10;;;8.98;;
69280;SDS011;56392;51.082;17.080;2023-09-12T09:13:44;19.20;;;9.25;;
69280;SDS011;56392;51.082;17.080;2023-09-12T09:19:10;15.67;;;9.40;;
69280;SDS011;56392;51.082;17.080;2023-09-12T09:24:33;15.77;;;9.73;;
69280;SDS011;56392;51.082;17.080;2023-09-12T09:29:58;17.13;;;9.40;;
69280;SDS011;56392;51.082;17.080;2023-09-12T09:35:23;14.07;;;8.93;;
69280;SDS011;56392;51.082;17.080;2023-09-12T09:40:46;13.27;;;8.93;;
69280;SDS011;56392;51.082;17.080;2023-09-12T09:46:14;18.10;;;9.43;;
69280;SDS011;56392;51.082;17.080;2023-09-12T09:51:41;16.87;;;8.10;;
69280;SDS011;56392;51.082;17.080;2023-09-12T09:57:06;13.05;;;8.80;;
69280;SDS011;56392;51.082;17.080;2023-09-12T10:02:29;13.95;;;8.63;;
69280;SDS011;56392;51.082;17.080;2023-09-12T10:07:54;13.75;;;8.90;;
69280;SDS011;56392;51.082;17.080;2023-09-12T10:13:21;13.63;;;9.07;;
69280;SDS011;56392;51.082;17.080;2023-09-12T10:18:49;13.60;;;8.90;;
69280;SDS011;56392;51.082;17.080;2023-09-12T10:24:21;15.98;;;8.32;;
69280;SDS011;56392;51.082;17.080;2023-09-12T10:29:45;14.03;;;8.50;;
69280;SDS011;56392;51.082;17.080;2023-09-12T10:35:11;12.93;;;8.02;;
69280;SDS011;56392;51.082;17.080;2023-09-12T10:40:36;14.80;;;8.50;;
69280;SDS011;56392;51.082;17.080;2023-09-12T10:46:01;14.07;;;8.50;;
69280;SDS011;56392;51.082;17.080;2023-09-12T10:51:25;14.43;;;8.05;;
69280;SDS011;56392;51.082;17.080;2023-09-12T10:57:02;11.60;;;7.20;;
69280;SDS011;56392;51.082;17.080;2023-09-12T11:02:27;14.20;;;7.57;;
69280;SDS011;56392;51.082;17.080;2023-09-12T11:07:51;11.27;;;7.50;;
69280;SDS011;56392;51.082;17.080;2023-09-12T11:13:21;11.93;;;8.07;;
69280;SDS011;56392;51.082;17.080;2023-09-12T11:19:14;11.25;;;7.60;;
69280;SDS011;56392;51.082;17.080;2023-09-12T11:24:42;12.33;;;7.70;;
69280;SDS011;56392;51.082;17.080;2023-09-12T11:30:10;12.70;;;7.45;;
69280;SDS011;56392;51.082;17.080;2023-09-12T11:35:36;11.80;;;7.93;;
69280;SDS011;56392;51.082;17.080;2023-09-12T11:41:02;11.40;;;7.47;;
69280;SDS011;56392;51.082;17.080;2023-09-12T11:46:27;13.93;;;8.10;;
69280;SDS011;56392;51.082;17.080;2023-09-12T11:51:52;11.45;;;7.65;;
69280;SDS011;56392;51.082;17.080;2023-09-12T11:57:16;11.57;;;7.60;;
69280;SDS011;56392;51.082;17.080;2023-09-12T12:02:41;11.30;;;7.50;;
69280;SDS011;56392;51.082;17.080;2023-09-12T12:08:06;11.93;;;7.28;;
69280;SDS011;56392;51.082;17.080;2023-09-12T12:13:32;13.38;;;7.68;;
69280;SDS011;56392;51.082;17.080;2023-09-12T12:18:57;15.93;;;7.30;;
69280;SDS011;56392;51.082;17.080;2023-09-12T12:24:20;11.82;;;7.75;;
69280;SDS011;56392;51.082;17.080;2023-09-12T12:29:43;10.80;;;7.20;;
69280;SDS011;56392;51.082;17.080;2023-09-12T12:35:18;12.07;;;7.63;;
69280;SDS011;56392;51.082;17.080;2023-09-12T12:40:41;11.40;;;7.10;;
69280;SDS011;56392;51.082;17.080;2023-09-12T12:46:04;14.15;;;7.40;;
69280;SDS011;56392;51.082;17.080;2023-09-12T12:51:34;14.07;;;7.47;;
69280;SDS011;56392;51.082;17.080;2023-09-12T12:57:00;11.97;;;7.00;;
69280;SDS011;56392;51.082;17.080;2023-09-12T13:02:24;11.02;;;7.13;;
69280;SDS011;56392;51.082;17.080;2023-09-12T13:07:49;13.25;;;7.32;;
69280;SDS011;56392;51.082;17.080;2023-09-12T13:13:12;13.87;;;7.13;;
69280;SDS011;56392;51.082;17.080;2023-09-12T13:18:35;13.23;;;7.30;;
69280;SDS011;56392;51.082;17.080;2023-09-12T13:24:01;12.98;;;7.50;;
69280;SDS011;56392;51.082;17.080;2023-09-12T13:29:24;13.87;;;7.53;;
69280;SDS011;56392;51.082;17.080;2023-09-12T13:34:47;11.73;;;7.32;;
69280;SDS011;56392;51.082;17.080;2023-09-12T13:40:13;11.85;;;7.60;;
69280;SDS011;56392;51.082;17.080;2023-09-12T13:45:37;11.00;;;7.25;;
69280;SDS011;56392;51.082;17.080;2023-09-12T13:51:01;12.60;;;7.70;;
69280;SDS011;56392;51.082;17.080;2023-09-12T13:56:26;12.90;;;7.22;;
69280;SDS011;56392;51.082;17.080;2023-09-12T14:01:49;12.48;;;7.70;;
69280;SDS011;56392;51.082;17.080;2023-09-12T14:07:12;12.10;;;7.60;;
69280;SDS011;56392;51.082;17.080;2023-09-12T14:12:37;12.32;;;7.53;;
69280;SDS011;56392;51.082;17.080;2023-09-12T14:18:00;14.18;;;7.50;;
69280;SDS011;56392;51.082;17.080;2023-09-12T14:23:24;14.27;;;7.40;;
69280;SDS011;56392;51.082;17.080;2023-09-12T14:28:48;13.00;;;7.50;;
69280;SDS011;56392;51.082;17.080;2023-09-12T14:34:12;11.85;;;7.60;;
69280;SDS011;56392;51.082;17.080;2023-09-12T14:39:36;13.65;;;8.25;;
69280;SDS011;56392;51.082;17.080;2023-09-12T14:45:00;11.70;;;7.10;;
69280;SDS011;56392;51.082;17.080;2023-09-12T14:50:23;10.57;;;7.20;;
69280;SDS011;56392;51.082;17.080;2023-09-12T14:55:48;12.48;;;7.53;;
69280;SDS011;56392;51.082;17.080;2023-09-12T15:01:15;13.03;;;7.53;;
69280;SDS011;56392;51.082;17.080;2023-09-12T15:06:38;12.10;;;7.70;;
69280;SDS011;56392;51.082;17.080;2023-09-12T15:12:01;14.00;;;7.63;;
69280;SDS011;56392;51.082;17.080;2023-09-12T15:17:26;11.93;;;6.90;;
69280;SDS011;56392;51.082;17.080;2023-09-12T15:22:49;11.70;;;7.47;;
69280;SDS011;56392;51.082;17.080;2023-09-12T15:28:12;12.02;;;7.78;;
69280;SDS011;56392;51.082;17.080;2023-09-12T15:33:39;12.70;;;7.50;;
69280;SDS011;56392;51.082;17.080;2023-09-12T15:39:05;12.83;;;7.50;;
69280;SDS011;56392;51.082;17.080;2023-09-12T15:44:28;12.40;;;7.53;;
69280;SDS011;56392;51.082;17.080;2023-09-12T15:49:54;14.15;;;7.78;;
69280;SDS011;56392;51.082;17.080;2023-09-12T15:55:17;12.77;;;7.53;;
69280;SDS011;56392;51.082;17.080;2023-09-12T16:00:40;13.73;;;7.53;;
69280;SDS011;56392;51.082;17.080;2023-09-12T16:06:05;11.20;;;7.40;;
69280;SDS011;56392;51.082;17.080;2023-09-12T16:11:29;13.80;;;8.03;;
69280;SDS011;56392;51.082;17.080;2023-09-12T16:16:52;15.20;;;7.65;;
69280;SDS011;56392;51.082;17.080;2023-09-12T16:22:17;11.55;;;7.85;;
69280;SDS011;56392;51.082;17.080;2023-09-12T16:27:40;10.95;;;7.72;;
69280;SDS011;56392;51.082;17.080;2023-09-12T16:33:04;13.40;;;8.17;;
69280;SDS011;56392;51.082;17.080;2023-09-12T16:38:29;12.80;;;7.72;;
69280;SDS011;56392;51.082;17.080;2023-09-12T16:43:52;13.30;;;7.80;;
69280;SDS011;56392;51.082;17.080;2023-09-12T16:49:15;15.80;;;8.03;;
69280;SDS011;56392;51.082;17.080;2023-09-12T16:54:40;12.70;;;8.00;;
69280;SDS011;56392;51.082;17.080;2023-09-12T17:00:03;16.08;;;8.40;;
69280;SDS011;56392;51.082;17.080;2023-09-12T17:05:27;17.43;;;7.87;;
69280;SDS011;56392;51.082;17.080;2023-09-12T17:10:52;13.13;;;7.70;;
69280;SDS011;56392;51.082;17.080;2023-09-12T17:16:15;17.77;;;8.52;;
69280;SDS011;56392;51.082;17.080;2023-09-12T17:21:38;13.50;;;8.55;;
69280;SDS011;56392;51.082;17.080;2023-09-12T17:27:04;13.13;;;8.17;;
69280;SDS011;56392;51.082;17.080;2023-09-12T17:32:28;16.08;;;8.40;;
69280;SDS011;56392;51.082;17.080;2023-09-12T17:37:51;20.15;;;8.60;;
69280;SDS011;56392;51.082;17.080;2023-09-12T17:43:16;13.47;;;8.67;;
69280;SDS011;56392;51.082;17.080;2023-09-12T17:48:40;18.48;;;8.30;;
69280;SDS011;56392;51.082;17.080;2023-09-12T17:54:04;18.10;;;9.32;;
69280;SDS011;56392;51.082;17.080;2023-09-12T17:59:28;16.47;;;8.53;;
69280;SDS011;56392;51.082;17.080;2023-09-12T18:04:53;14.48;;;8.50;;
69280;SDS011;56392;51.082;17.080;2023-09-12T18:10:18;13.23;;;8.18;;
69280;SDS011;56392;51.082;17.080;2023-09-12T18:15:43;14.40;;;8.40;;
69280;SDS011;56392;51.082;17.080;2023-09-12T18:21:07;17.87;;;9.33;;
69280;SDS011;56392;51.082;17.080;2023-09-12T18:26:30;18.90;;;9.15;;
69280;SDS011;56392;51.082;17.080;2023-09-12T18:31:54;14.10;;;8.52;;
69280;SDS011;56392;51.082;17.080;2023-09-12T18:37:18;17.10;;;8.93;;
69280;SDS011;56392;51.082;17.080;2023-09-12T18:42:41;13.57;;;8.80;;
69280;SDS011;56392;51.082;17.080;2023-09-12T18:48:05;16.35;;;9.18;;
69280;SDS011;56392;51.082;17.080;2023-09-12T18:53:28;15.80;;;8.43;;
69280;SDS011;56392;51.082;17.080;2023-09-12T18:58:51;14.10;;;8.38;;
69280;SDS011;56392;51.082;17.080;2023-09-12T19:04:23;13.90;;;8.48;;
69280;SDS011;56392;51.082;17.080;2023-09-12T19:09:48;14.53;;;8.37;;
69280;SDS011;56392;51.082;17.080;2023-09-12T19:15:11;13.43;;;9.03;;
69280;SDS011;56392;51.082;17.080;2023-09-12T19:20:36;16.52;;;8.60;;
69280;SDS011;56392;51.082;17.080;2023-09-12T19:25:59;12.98;;;9.10;;
69280;SDS011;56392;51.082;17.080;2023-09-12T19:31:22;15.80;;;8.73;;
69280;SDS011;56392;51.082;17.080;2023-09-12T19:36:47;13.43;;;8.88;;
69280;SDS011;56392;51.082;17.080;2023-09-12T19:42:14;15.07;;;9.35;;
69280;SDS011;56392;51.082;17.080;2023-09-12T19:47:39;15.73;;;9.10;;
69280;SDS011;56392;51.082;17.080;2023-09-12T19:53:05;16.05;;;9.60;;
69280;SDS011;56392;51.082;17.080;2023-09-12T19:58:29;17.38;;;8.98;;
69280;SDS011;56392;51.082;17.080;2023-09-12T20:03:54;18.13;;;9.30;;
69280;SDS011;56392;51.082;17.080;2023-09-12T20:09:19;17.20;;;9.53;;
69280;SDS011;56392;51.082;17.080;2023-09-12T20:14:45;17.90;;;9.60;;
69280;SDS011;56392;51.082;17.080;2023-09-12T20:20:09;16.50;;;9.73;;
69280;SDS011;56392;51.082;17.080;2023-09-12T20:25:35;14.17;;;9.30;;
69280;SDS011;56392;51.082;17.080;2023-09-12T20:30:58;15.10;;;9.73;;
69280;SDS011;56392;51.082;17.080;2023-09-12T20:36:21;15.38;;;10.13;;
69280;SDS011;56392;51.082;17.080;2023-09-12T20:41:47;14.87;;;9.87;;
69280;SDS011;56392;51.082;17.080;2023-09-12T20:47:11;18.63;;;9.55;;
69280;SDS011;56392;51.082;17.080;2023-09-12T20:52:35;18.63;;;8.73;;
69280;SDS011;56392;51.082;17.080;2023-09-12T20:58:00;15.20;;;9.60;;
69280;SDS011;56392;51.082;17.080;2023-09-12T21:03:24;17.63;;;10.20;;
69280;SDS011;56392;51.082;17.080;2023-09-12T21:08:47;16.42;;;10.77;;
69280;SDS011;56392;51.082;17.080;2023-09-12T21:14:13;16.40;;;10.55;;
69280;SDS011;56392;51.082;17.080;2023-09-12T21:19:38;18.00;;;9.97;;
69280;SDS011;56392;51.082;17.080;2023-09-12T21:25:01;17.52;;;9.93;;
69280;SDS011;56392;51.082;17.080;2023-09-12T21:30:30;17.10;;;10.25;;
69280;SDS011;56392;51.082;17.080;2023-09-12T21:35:53;16.13;;;10.20;;
69280;SDS011;56392;51.082;17.080;2023-09-12T21:41:16;19.95;;;10.55;;
69280;SDS011;56392;51.082;17.080;2023-09-12T21:46:43;18.88;;;10.55;;
69280;SDS011;56392;51.082;17.080;2023-09-12T21:52:06;18.00;;;10.30;;
69280;SDS011;56392;51.082;17.080;2023-09-12T21:57:30;18.27;;;10.70;;
69280;SDS011;56392;51.082;17.080;2023-09-12T22:02:57;16.60;;;11.10;;
69280;SDS011;56392;51.082;17.080;2023-09-12T22:08:21;17.02;;;11.40;;
69280;SDS011;56392;51.082;17.080;2023-09-12T22:13:44;18.20;;;11.33;;
69280;SDS011;56392;51.082;17.080;2023-09-12T22:19:08;16.27;;;11.25;;
69280;SDS011;56392;51.082;17.080;2023-09-12T22:24:32;20.10;;;10.98;;
69280;SDS011;56392;51.082;17.080;2023-09-12T22:29:55;16.60;;;10.67;;
69280;SDS011;56392;51.082;17.080;2023-09-12T22:35:19;18.20;;;11.02;;
69280;SDS011;56392;51.082;17.080;2023-09-12T22:40:43;17.50;;;11.20;;
69280;SDS011;56392;51.082;17.080;2023-09-12T22:46:07;16.40;;;10.67;;
69280;SDS011;56392;51.082;17.080;2023-09-12T22:51:32;20.57;;;11.70;;
69280;SDS011;56392;51.082;17.080;2023-09-12T22:56:55;19.25;;;11.88;;
69280;SDS011;56392;51.082;17.080;2023-09-12T23:02:18;19.55;;;12.23;;
69280;SDS011;56392;51.082;17.080;2023-09-12T23:07:42;18.67;;;10.93;;
69280;SDS011;56392;51.082;17.080;2023-09-12T23:13:07;18.90;;;11.90;;
69280;SDS011;56392;51.082;17.080;2023-09-12T23:18:31;20.23;;;11.57;;
69280;SDS011;56392;51.082;17.080;2023-09-12T23:23:55;17.43;;;11.20;;
69280;SDS011;56392;51.082;17.080;2023-09-12T23:29:18;19.30;;;10.25;;
69280;SDS011;56392;51.082;17.080;2023-09-12T23:34:41;15.82;;;10.13;;
69280;SDS011;56392;51.082;17.080;2023-09-12T23:40:07;19.10;;;11.00;;
69280;SDS011;56392;51.082;17.080;2023-09-12T23:45:31;15.53;;;10.53;;
69280;SDS011;56392;51.082;17.080;2023-09-12T23:50:54;17.75;;;11.77;;
69280;SDS011;56392;51.082;17.080;2023-09-12T23:56:19;18.88;;;11.55;;
